createdAt,value
2018-12-26T00:00:00.297Z,101736.11
2018-12-26T00:02:29.312Z,101733.97
2018-12-26T00:04:58.396Z,101729.84
2018-12-26T00:07:27.442Z,101731.81
2018-12-26T00:09:56.491Z,101737.61
2018-12-26T00:12:25.625Z,101744.61
2018-12-26T00:14:54.673Z,101741.11
2018-12-26T00:17:23.766Z,101759.12
2018-12-26T00:19:52.921Z,101768.21
2018-12-26T00:22:21.906Z,101761.79
2018-12-26T00:24:50.962Z,101748.48
2018-12-26T00:27:20.036Z,101751.02
2018-12-26T00:29:49.092Z,101750.30
2018-12-26T00:32:18.157Z,101744.59
2018-12-26T00:34:47.246Z,101738.45
2018-12-26T00:37:16.307Z,101722.69
2018-12-26T00:39:45.363Z,101727.70
2018-12-26T00:42:14.442Z,101728.55
2018-12-26T00:44:43.499Z,101706.94
2018-12-26T00:47:12.568Z,101710.49
2018-12-26T00:49:41.732Z,101719.38
2018-12-26T00:52:10.795Z,101723.39
2018-12-26T00:54:39.852Z,101728.41
2018-12-26T00:57:08.966Z,101716.70
2018-12-26T00:59:38.026Z,101727.65
2018-12-26T01:02:07.081Z,101738.41
2018-12-26T01:04:36.175Z,101744.59
2018-12-26T01:07:05.228Z,101730.16
2018-12-26T01:09:34.279Z,101744.24
2018-12-26T01:12:03.355Z,101740.58
2018-12-26T01:14:32.401Z,101730.34
2018-12-26T01:17:01.461Z,101731.11
2018-12-26T01:19:30.554Z,101725.48
2018-12-26T01:21:59.608Z,101719.29
2018-12-26T01:24:28.649Z,101724.02
2018-12-26T01:26:57.801Z,101731.70
2018-12-26T01:29:26.846Z,101723.88
2018-12-26T01:31:55.906Z,101724.41
2018-12-26T01:34:25.023Z,101721.64
2018-12-26T01:36:54.083Z,101705.27
2018-12-26T01:39:23.129Z,101720.98
2018-12-26T01:41:52.237Z,101725.02
2018-12-26T01:44:21.292Z,101721.52
2018-12-26T01:46:50.341Z,101712.94
2018-12-26T01:49:19.423Z,101710.41
2018-12-26T01:51:48.474Z,101702.32
2018-12-26T01:54:17.529Z,101703.17
2018-12-26T01:56:46.691Z,101696.62
2018-12-26T01:59:15.736Z,101701.16
2018-12-26T02:01:44.775Z,101696.48
2018-12-26T02:04:13.868Z,101700.66
2018-12-26T02:06:42.911Z,101692.89
2018-12-26T02:09:11.975Z,101696.66
2018-12-26T02:11:41.057Z,101693.11
2018-12-26T02:14:10.113Z,101700.00
2018-12-26T02:16:39.167Z,101696.38
2018-12-26T02:19:08.316Z,101687.22
2018-12-26T02:21:37.372Z,101684.02
2018-12-26T02:24:06.417Z,101687.53
2018-12-26T02:26:36.554Z,101690.94
2018-12-26T02:29:04.663Z,101690.20
2018-12-26T02:31:33.712Z,101695.07
2018-12-26T02:34:02.802Z,101693.61
2018-12-26T02:36:31.868Z,101689.17
2018-12-26T02:39:00.920Z,101679.38
2018-12-26T02:41:30.000Z,101678.19
2018-12-26T02:43:59.061Z,101683.41
2018-12-26T02:46:28.110Z,101677.33
2018-12-26T02:48:57.206Z,101671.39
2018-12-26T02:51:26.251Z,101677.14
2018-12-26T02:53:55.304Z,101658.26
2018-12-26T02:56:24.380Z,101657.66
2018-12-26T02:58:53.430Z,101660.89
2018-12-26T03:01:22.474Z,101655.84
2018-12-26T03:03:51.552Z,101659.16
2018-12-26T03:06:20.599Z,101654.29
2018-12-26T03:08:49.651Z,101664.13
2018-12-26T03:11:18.750Z,101666.75
2018-12-26T03:13:47.789Z,101662.64
2018-12-26T03:16:16.858Z,101661.69
2018-12-26T03:18:45.921Z,101667.41
2018-12-26T03:21:14.976Z,101662.98
2018-12-26T03:23:44.022Z,101668.95
2018-12-26T03:26:13.102Z,101671.19
2018-12-26T03:28:42.149Z,101667.59
2018-12-26T03:31:11.220Z,101674.84
2018-12-26T03:33:40.335Z,101669.65
2018-12-26T03:36:09.409Z,101667.53
2018-12-26T03:38:38.463Z,101660.73
2018-12-26T03:41:07.533Z,101663.56
2018-12-26T03:43:36.586Z,101664.39
2018-12-26T03:46:05.635Z,101658.91
2018-12-26T03:48:34.737Z,101654.13
2018-12-26T03:51:03.795Z,101659.39
2018-12-26T03:53:32.831Z,101658.67
2018-12-26T03:56:01.949Z,101644.86
2018-12-26T03:58:31.013Z,101650.81
2018-12-26T04:01:00.067Z,101649.11
2018-12-26T04:03:29.146Z,101650.70
2018-12-26T04:05:58.213Z,101666.52
2018-12-26T04:08:29.248Z,101653.56
2018-12-26T04:10:58.326Z,101659.44
2018-12-26T04:13:27.374Z,101635.75
2018-12-26T04:15:56.408Z,101649.33
2018-12-26T04:18:25.499Z,101660.13
2018-12-26T04:20:54.549Z,101660.13
2018-12-26T04:23:23.591Z,101651.09
2018-12-26T04:25:52.685Z,101663.50
2018-12-26T04:28:21.732Z,101655.29
2018-12-26T04:30:50.782Z,101654.20
2018-12-26T04:33:19.953Z,101651.42
2018-12-26T04:35:48.988Z,101656.83
2018-12-26T04:38:18.038Z,101661.65
2018-12-26T04:40:47.161Z,101661.61
2018-12-26T04:43:16.194Z,101662.65
2018-12-26T04:45:45.248Z,101667.05
2018-12-26T04:48:14.409Z,101658.28
2018-12-26T04:50:43.463Z,101668.17
2018-12-26T04:53:12.514Z,101682.44
2018-12-26T04:55:41.617Z,101683.90
2018-12-26T04:58:10.686Z,101683.84
2018-12-26T05:00:39.743Z,101685.49
2018-12-26T05:03:08.833Z,101680.23
2018-12-26T05:05:37.882Z,101687.80
2018-12-26T05:08:06.934Z,101683.46
2018-12-26T05:10:36.026Z,101686.83
2018-12-26T05:13:05.078Z,101686.61
2018-12-26T05:15:34.133Z,101681.98
2018-12-26T05:18:03.221Z,101685.58
2018-12-26T05:20:32.271Z,101703.31
2018-12-26T05:23:01.352Z,101702.31
2018-12-26T05:25:30.447Z,101704.68
2018-12-26T05:28:00.527Z,101702.16
2018-12-26T05:30:29.591Z,101707.92
2018-12-26T05:32:58.659Z,101710.98
2018-12-26T05:35:27.715Z,101710.84
2018-12-26T05:37:56.770Z,101721.80
2018-12-26T05:40:25.862Z,101713.52
2018-12-26T05:42:54.910Z,101724.77
2018-12-26T05:45:23.968Z,101727.72
2018-12-26T05:47:56.920Z,101734.29
2018-12-26T05:50:25.976Z,101745.86
2018-12-26T05:52:55.034Z,101748.72
2018-12-26T05:55:24.191Z,101759.09
2018-12-26T05:57:53.177Z,101753.92
2018-12-26T06:00:22.217Z,101752.33
2018-12-26T06:02:51.298Z,101765.28
2018-12-26T06:05:20.350Z,101762.66
2018-12-26T06:07:49.411Z,101758.13
2018-12-26T06:10:18.528Z,101761.64
2018-12-26T06:12:47.587Z,101760.46
2018-12-26T06:15:16.632Z,101764.55
2018-12-26T06:17:46.673Z,101760.34
2018-12-26T06:20:15.736Z,101768.42
2018-12-26T06:22:44.778Z,101771.88
2018-12-26T06:25:13.853Z,101777.20
2018-12-26T06:27:51.225Z,101769.54
2018-12-26T06:30:11.969Z,101783.72
2018-12-26T06:32:41.079Z,101780.01
2018-12-26T06:35:10.137Z,101791.25
2018-12-26T06:37:39.189Z,101781.41
2018-12-26T06:40:08.270Z,101793.75
2018-12-26T06:42:37.331Z,101791.52
2018-12-26T06:45:06.390Z,101805.36
2018-12-26T06:47:47.792Z,101801.69
2018-12-26T06:50:16.850Z,101805.63
2018-12-26T06:52:45.903Z,101805.52
2018-12-26T06:55:14.984Z,101815.70
2018-12-26T06:57:44.041Z,101826.58
2018-12-26T07:00:13.103Z,101828.34
2018-12-26T07:02:42.197Z,101824.02
2018-12-26T07:05:11.254Z,101827.53
2018-12-26T07:07:40.302Z,101832.84
2018-12-26T07:10:09.398Z,101831.75
2018-12-26T07:12:38.450Z,101834.66
2018-12-26T07:15:07.512Z,101851.27
2018-12-26T07:17:36.586Z,101852.29
2018-12-26T07:20:05.640Z,101847.20
2018-12-26T07:22:34.698Z,101851.02
2018-12-26T07:25:03.785Z,101855.19
2018-12-26T07:27:32.839Z,101846.81
2018-12-26T07:30:01.907Z,101852.20
2018-12-26T07:32:31.018Z,101858.51
2018-12-26T07:35:00.085Z,101868.73
2018-12-26T07:37:29.127Z,101875.50
2018-12-26T07:39:58.197Z,101884.00
2018-12-26T07:42:27.239Z,101865.28
2018-12-26T07:44:56.290Z,101867.66
2018-12-26T07:47:25.376Z,101876.15
2018-12-26T07:49:54.428Z,101872.34
2018-12-26T07:52:23.487Z,101865.67
2018-12-26T07:54:52.588Z,101867.97
2018-12-26T07:57:21.636Z,101877.12
2018-12-26T07:59:50.694Z,101881.89
2018-12-26T08:02:19.785Z,101881.95
2018-12-26T08:04:48.836Z,101880.59
2018-12-26T08:07:35.324Z,101879.39
2018-12-26T08:10:04.375Z,101881.68
2018-12-26T08:12:33.453Z,101881.73
2018-12-26T08:15:10.186Z,101888.41
2018-12-26T08:17:31.609Z,101884.97
2018-12-26T08:20:00.771Z,101883.75
2018-12-26T08:22:29.752Z,101879.53
2018-12-26T08:24:58.834Z,101882.35
2018-12-26T08:27:27.886Z,101881.46
2018-12-26T08:29:57.002Z,101874.27
2018-12-26T08:32:26.072Z,101888.32
2018-12-26T08:34:55.120Z,101882.65
2018-12-26T08:37:24.219Z,101880.82
2018-12-26T08:39:53.279Z,101889.02
2018-12-26T08:42:22.338Z,101892.69
2018-12-26T08:44:51.417Z,101892.03
2018-12-26T08:47:20.467Z,101895.32
2018-12-26T08:49:49.569Z,101890.22
2018-12-26T08:52:18.648Z,101897.95
2018-12-26T08:54:47.703Z,101898.20
2018-12-26T08:57:16.767Z,101910.69
2018-12-26T08:59:46.209Z,101908.56
2018-12-26T09:02:15.268Z,101905.27
2018-12-26T09:04:44.326Z,101904.89
2018-12-26T09:07:13.404Z,101905.55
2018-12-26T09:09:42.457Z,101912.00
2018-12-26T09:12:11.511Z,101907.84
2018-12-26T09:14:40.587Z,101893.97
2018-12-26T09:17:09.633Z,101891.85
2018-12-26T09:19:38.685Z,101893.33
2018-12-26T09:22:07.945Z,101897.87
2018-12-26T09:24:36.992Z,101894.49
2018-12-26T09:27:06.058Z,101900.63
2018-12-26T09:29:35.136Z,101901.55
2018-12-26T09:32:04.196Z,101900.47
2018-12-26T09:34:33.239Z,101912.88
2018-12-26T09:37:02.577Z,101905.38
2018-12-26T09:39:31.632Z,101916.84
2018-12-26T09:42:00.705Z,101914.33
2018-12-26T09:44:29.815Z,101912.52
2018-12-26T09:46:58.874Z,101910.39
2018-12-26T09:49:27.925Z,101904.64
2018-12-26T09:51:57.009Z,101913.38
2018-12-26T09:54:26.069Z,101917.14
2018-12-26T09:56:55.113Z,101919.66
2018-12-26T09:59:24.208Z,101918.05
2018-12-26T10:01:54.361Z,101928.17
2018-12-26T10:04:22.350Z,101940.81
2018-12-26T10:06:51.471Z,101925.98
2018-12-26T10:09:20.531Z,101920.59
2018-12-26T10:11:49.753Z,101924.10
2018-12-26T10:14:18.834Z,101916.70
2018-12-26T10:16:47.891Z,101914.72
2018-12-26T10:19:16.938Z,101913.38
2018-12-26T10:21:46.026Z,101901.77
2018-12-26T10:24:15.072Z,101916.08
2018-12-26T10:26:44.141Z,101919.00
2018-12-26T10:29:13.249Z,101912.65
2018-12-26T10:31:42.313Z,101926.70
2018-12-26T10:34:11.381Z,101930.64
2018-12-26T10:36:40.467Z,101931.41
2018-12-26T10:39:09.532Z,101929.01
2018-12-26T10:41:38.602Z,101923.44
2018-12-26T10:44:07.690Z,101926.31
2018-12-26T10:46:36.742Z,101935.26
2018-12-26T10:49:05.800Z,101935.23
2018-12-26T10:51:34.896Z,101941.38
2018-12-26T10:54:03.953Z,101945.48
2018-12-26T10:56:33.027Z,101936.23
2018-12-26T10:59:09.712Z,101933.70
2018-12-26T11:01:31.240Z,101931.50
2018-12-26T11:04:00.311Z,101928.98
2018-12-26T11:06:29.409Z,101936.16
2018-12-26T11:08:58.464Z,101935.77
2018-12-26T11:11:27.524Z,101939.23
2018-12-26T11:13:56.637Z,101947.41
2018-12-26T11:16:25.938Z,101946.73
2018-12-26T11:18:55.034Z,101951.58
2018-12-26T11:21:24.118Z,101939.38
2018-12-26T11:23:53.828Z,101940.11
2018-12-26T11:26:22.888Z,101944.88
2018-12-26T11:28:52.944Z,101939.19
2018-12-26T11:31:22.312Z,101951.89
2018-12-26T11:33:51.422Z,101950.17
2018-12-26T11:36:20.538Z,101947.44
2018-12-26T11:38:49.598Z,101951.38
2018-12-26T11:41:18.666Z,101945.86
2018-12-26T11:43:47.744Z,101945.30
2018-12-26T11:46:18.268Z,101944.84
2018-12-26T11:48:47.313Z,101947.64
2018-12-26T11:51:16.407Z,101954.11
2018-12-26T11:53:45.462Z,101945.02
2018-12-26T11:56:14.513Z,101950.83
2018-12-26T11:58:43.623Z,101959.39
2018-12-26T12:01:12.689Z,101952.25
2018-12-26T12:03:41.746Z,101959.94
2018-12-26T12:06:10.836Z,101969.48
2018-12-26T12:08:39.886Z,101966.31
2018-12-26T12:11:08.950Z,101961.78
2018-12-26T12:13:38.030Z,101952.89
2018-12-26T12:16:07.098Z,101957.08
2018-12-26T12:18:36.162Z,101964.58
2018-12-26T12:21:05.250Z,101959.35
2018-12-26T12:23:34.319Z,101959.41
2018-12-26T12:26:03.380Z,101957.39
2018-12-26T12:28:32.457Z,101972.42
2018-12-26T12:31:01.527Z,101973.91
2018-12-26T12:33:30.595Z,101977.09
2018-12-26T12:35:59.675Z,101974.67
2018-12-26T12:38:28.738Z,101983.34
2018-12-26T12:40:57.798Z,101984.64
2018-12-26T12:43:26.903Z,101982.23
2018-12-26T12:45:55.966Z,101989.37
2018-12-26T12:48:25.037Z,101986.03
2018-12-26T12:50:54.130Z,101991.14
2018-12-26T12:53:23.179Z,102000.38
2018-12-26T12:55:52.241Z,102001.18
2018-12-26T12:58:21.330Z,101997.84
2018-12-26T13:00:50.379Z,101996.36
2018-12-26T13:03:19.441Z,101997.79
2018-12-26T13:05:48.542Z,102008.34
2018-12-26T13:08:17.594Z,102008.14
2018-12-26T13:10:46.654Z,102007.86
2018-12-26T13:13:15.758Z,102004.13
2018-12-26T13:15:44.813Z,102004.95
2018-12-26T13:18:15.888Z,102018.01
2018-12-26T13:20:44.965Z,102012.14
2018-12-26T13:23:14.026Z,102009.84
2018-12-26T13:25:43.092Z,102009.47
2018-12-26T13:28:12.193Z,102004.34
2018-12-26T13:30:41.245Z,102005.06
2018-12-26T13:33:10.302Z,102001.41
2018-12-26T13:35:39.390Z,102012.52
2018-12-26T13:38:08.442Z,102004.91
2018-12-26T13:40:37.502Z,102005.73
2018-12-26T13:43:06.586Z,102008.97
2018-12-26T13:45:35.642Z,102018.39
2018-12-26T13:48:04.695Z,102015.17
2018-12-26T13:50:33.822Z,102009.65
2018-12-26T13:53:03.142Z,102001.33
2018-12-26T13:55:32.223Z,102000.51
2018-12-26T13:58:01.339Z,102001.55
2018-12-26T14:00:30.392Z,102003.86
2018-12-26T14:02:59.431Z,102008.07
2018-12-26T14:05:28.514Z,102011.84
2018-12-26T14:07:57.549Z,102006.82
2018-12-26T14:10:26.602Z,102004.45
2018-12-26T14:12:55.690Z,102011.02
2018-12-26T14:15:24.734Z,102011.45
2018-12-26T14:17:53.778Z,102015.56
2018-12-26T14:20:22.867Z,102019.83
2018-12-26T14:22:51.909Z,102022.48
2018-12-26T14:25:20.959Z,102028.78
2018-12-26T14:27:50.037Z,102027.26
2018-12-26T14:30:19.093Z,102034.23
2018-12-26T14:32:48.153Z,102038.56
2018-12-26T14:35:17.265Z,102038.83
2018-12-26T14:37:46.320Z,102040.69
2018-12-26T14:40:15.384Z,102035.70
2018-12-26T14:42:44.475Z,102040.06
2018-12-26T14:45:13.527Z,102039.95
2018-12-26T14:47:42.576Z,102041.64
2018-12-26T14:50:11.671Z,102044.14
2018-12-26T14:52:40.748Z,102044.16
2018-12-26T14:55:09.927Z,102050.33
2018-12-26T14:57:39.075Z,102046.22
2018-12-26T15:00:08.140Z,102045.47
2018-12-26T15:02:37.197Z,102038.73
2018-12-26T15:05:06.281Z,102047.14
2018-12-26T15:07:35.347Z,102043.70
2018-12-26T15:10:04.420Z,102044.91
2018-12-26T15:12:33.504Z,102046.48
2018-12-26T15:15:02.563Z,102050.13
2018-12-26T15:17:31.626Z,102047.61
2018-12-26T15:20:00.734Z,102052.63
2018-12-26T15:22:29.804Z,102050.67
2018-12-26T15:24:58.855Z,102044.67
2018-12-26T15:27:27.961Z,102045.98
2018-12-26T15:29:57.017Z,102046.69
2018-12-26T15:32:26.153Z,102049.20
2018-12-26T15:34:55.181Z,102039.24
2018-12-26T15:37:24.230Z,102039.79
2018-12-26T15:39:53.314Z,102038.04
2018-12-26T15:42:22.650Z,102043.72
2018-12-26T15:44:51.702Z,102043.90
2018-12-26T15:47:20.775Z,102042.14
2018-12-26T15:49:49.858Z,102040.55
2018-12-26T15:52:18.916Z,102043.16
2018-12-26T15:54:47.977Z,102042.23
2018-12-26T15:57:17.144Z,102042.02
2018-12-26T15:59:46.151Z,102047.36
2018-12-26T16:02:15.204Z,102044.20
2018-12-26T16:04:44.325Z,102042.88
2018-12-26T16:07:13.374Z,102042.08
2018-12-26T16:09:42.439Z,102041.61
2018-12-26T16:12:11.520Z,102047.78
2018-12-26T16:14:40.576Z,102054.78
2018-12-26T16:17:09.640Z,102044.64
2018-12-26T16:19:38.718Z,102057.27
2018-12-26T16:22:07.789Z,102060.87
2018-12-26T16:24:36.846Z,102066.20
2018-12-26T16:27:05.948Z,102072.16
2018-12-26T16:29:35.004Z,102071.69
2018-12-26T16:32:04.061Z,102074.59
2018-12-26T16:34:33.151Z,102078.22
2018-12-26T16:37:02.221Z,102079.58
2018-12-26T16:39:35.653Z,102070.47
2018-12-26T16:42:00.356Z,102069.59
2018-12-26T16:44:29.412Z,102066.70
2018-12-26T16:46:58.470Z,102058.94
2018-12-26T16:49:27.570Z,102063.41
2018-12-26T16:51:56.638Z,102074.34
2018-12-26T16:54:25.842Z,102085.11
2018-12-26T16:56:54.787Z,102080.19
2018-12-26T16:59:23.839Z,102080.63
2018-12-26T17:01:52.915Z,102085.00
2018-12-26T17:04:21.999Z,102092.33
2018-12-26T17:06:51.054Z,102092.27
2018-12-26T17:09:20.099Z,102089.47
2018-12-26T17:11:49.297Z,102097.30
2018-12-26T17:14:18.338Z,102084.83
2018-12-26T17:16:47.399Z,102086.03
2018-12-26T17:19:16.494Z,102095.77
2018-12-26T17:21:45.541Z,102092.38
2018-12-26T17:24:16.676Z,102088.65
2018-12-26T17:26:43.739Z,102097.69
2018-12-26T17:29:12.809Z,102111.58
2018-12-26T17:31:41.843Z,102111.13
2018-12-26T17:34:10.989Z,102112.58
2018-12-26T17:36:40.042Z,102110.10
2018-12-26T17:39:09.116Z,102106.80
2018-12-26T17:41:38.176Z,102104.33
2018-12-26T17:44:07.255Z,102107.11
2018-12-26T17:46:36.295Z,102108.22
2018-12-26T17:49:05.409Z,102103.58
2018-12-26T17:51:34.453Z,102103.68
2018-12-26T17:54:03.674Z,102107.50
2018-12-26T17:56:32.766Z,102106.41
2018-12-26T17:59:02.050Z,102108.80
2018-12-26T18:01:33.430Z,102114.92
2018-12-26T18:04:02.499Z,102110.28
2018-12-26T18:06:31.552Z,102111.80
2018-12-26T18:09:00.626Z,102122.41
2018-12-26T18:11:29.692Z,102109.62
2018-12-26T18:13:58.750Z,102117.94
2018-12-26T18:16:28.090Z,102122.58
2018-12-26T18:18:57.149Z,102125.92
2018-12-26T18:21:26.196Z,102124.12
2018-12-26T18:23:55.286Z,102112.20
2018-12-26T18:26:24.332Z,102115.81
2018-12-26T18:28:53.384Z,102117.67
2018-12-26T18:31:22.470Z,102116.34
2018-12-26T18:33:51.527Z,102114.50
2018-12-26T18:36:20.591Z,102112.02
2018-12-26T18:38:49.686Z,102122.63
2018-12-26T18:41:18.731Z,102114.98
2018-12-26T18:43:47.781Z,102118.19
2018-12-26T18:46:16.860Z,102121.75
2018-12-26T18:48:46.168Z,102123.44
2018-12-26T18:51:15.226Z,102122.34
2018-12-26T18:53:44.384Z,102128.67
2018-12-26T18:56:13.467Z,102126.96
2018-12-26T18:58:42.508Z,102131.88
2018-12-26T19:01:11.702Z,102127.77
2018-12-26T19:03:40.774Z,102131.22
2018-12-26T19:06:09.850Z,102127.88
2018-12-26T19:08:38.935Z,102134.10
2018-12-26T19:11:08.007Z,102127.52
2018-12-26T19:13:37.039Z,102131.00
2018-12-26T19:16:06.159Z,102125.27
2018-12-26T19:18:35.195Z,102137.30
2018-12-26T19:21:04.261Z,102125.22
2018-12-26T19:23:33.343Z,102136.09
2018-12-26T19:26:02.626Z,102134.45
2018-12-26T19:28:31.436Z,102126.30
2018-12-26T19:31:00.526Z,102135.71
2018-12-26T19:33:29.865Z,102127.20
2018-12-26T19:35:58.675Z,102121.08
2018-12-26T19:38:27.727Z,102125.58
2018-12-26T19:40:56.829Z,102128.42
2018-12-26T19:43:25.887Z,102129.63
2018-12-26T19:45:55.030Z,102135.16
2018-12-26T19:48:24.087Z,102127.02
2018-12-26T19:50:53.194Z,102136.36
2018-12-26T19:53:22.247Z,102121.88
2018-12-26T19:55:51.334Z,102133.93
2018-12-26T19:58:20.365Z,102130.92
2018-12-26T20:00:49.454Z,102127.25
2018-12-26T20:03:18.653Z,102128.35
2018-12-26T20:05:47.736Z,102136.55
2018-12-26T20:08:16.993Z,102143.78
2018-12-26T20:10:46.051Z,102138.90
2018-12-26T20:13:15.104Z,102133.47
2018-12-26T20:15:44.216Z,102130.52
2018-12-26T20:18:13.272Z,102126.84
2018-12-26T20:20:42.326Z,102124.78
2018-12-26T20:23:11.443Z,102113.52
2018-12-26T20:25:40.522Z,102121.66
2018-12-26T20:28:09.548Z,102115.77
2018-12-26T20:30:38.975Z,102113.75
2018-12-26T20:33:07.707Z,102101.89
2018-12-26T20:35:36.791Z,102104.91
2018-12-26T20:38:06.084Z,102105.72
2018-12-26T20:40:34.932Z,102108.23
2018-12-26T20:43:04.004Z,102102.88
2018-12-26T20:45:33.188Z,102095.56
2018-12-26T20:48:02.245Z,102091.14
2018-12-26T20:50:31.302Z,102088.55
2018-12-26T20:53:00.513Z,102088.72
2018-12-26T20:55:29.566Z,102082.77
2018-12-26T20:57:58.631Z,102085.55
2018-12-26T21:00:27.717Z,102085.77
2018-12-26T21:02:56.768Z,102080.53
2018-12-26T21:05:25.856Z,102078.67
2018-12-26T21:07:54.968Z,102077.73
2018-12-26T21:10:24.023Z,102076.41
2018-12-26T21:12:53.090Z,102077.19
2018-12-26T21:15:22.844Z,102073.41
2018-12-26T21:17:51.252Z,102072.69
2018-12-26T21:20:20.320Z,102063.88
2018-12-26T21:22:49.382Z,102065.76
2018-12-26T21:25:18.451Z,102064.39
2018-12-26T21:27:47.521Z,102068.48
2018-12-26T21:30:16.625Z,102063.61
2018-12-26T21:32:45.654Z,102064.66
2018-12-26T21:35:14.724Z,102062.59
2018-12-26T21:37:44.023Z,102050.33
2018-12-26T21:40:13.163Z,102048.62
2018-12-26T21:42:42.227Z,102053.28
2018-12-26T21:45:11.321Z,102046.34
2018-12-26T21:47:40.385Z,102042.84
2018-12-26T21:50:09.477Z,102037.27
2018-12-26T21:52:38.565Z,102036.02
2018-12-26T21:55:07.631Z,102041.42
2018-12-26T21:57:36.701Z,102040.97
2018-12-26T22:00:05.861Z,102038.80
2018-12-26T22:02:34.916Z,102039.95
2018-12-26T22:05:04.023Z,102033.48
2018-12-26T22:07:33.110Z,102030.98
2018-12-26T22:10:02.164Z,102029.23
2018-12-26T22:12:31.229Z,102033.42
2018-12-26T22:15:00.376Z,102024.09
2018-12-26T22:17:29.477Z,102021.06
2018-12-26T22:19:58.529Z,102020.36
2018-12-26T22:22:27.679Z,102013.75
2018-12-26T22:24:56.745Z,102014.47
2018-12-26T22:27:25.806Z,102009.98
2018-12-26T22:29:54.880Z,102008.55
2018-12-26T22:32:30.454Z,102008.06
2018-12-26T22:34:53.109Z,102011.61
2018-12-26T22:37:22.092Z,102016.59
2018-12-26T22:39:51.168Z,102017.03
2018-12-26T22:42:20.219Z,102008.61
2018-12-26T22:44:49.335Z,102007.89
2018-12-26T22:47:18.381Z,102004.19
2018-12-26T22:49:48.839Z,102007.84
2018-12-26T22:52:16.533Z,102009.11
2018-12-26T22:54:45.615Z,102005.16
2018-12-26T22:57:14.658Z,102017.51
2018-12-26T22:59:43.751Z,102017.73
2018-12-26T23:02:12.791Z,102018.48
2018-12-26T23:04:41.870Z,102018.83
2018-12-26T23:07:11.115Z,102017.23
2018-12-26T23:09:40.172Z,102019.31
2018-12-26T23:12:09.251Z,102017.16
2018-12-26T23:14:38.332Z,102017.77
2018-12-26T23:17:07.395Z,102015.47
2018-12-26T23:19:36.674Z,102020.92
2018-12-26T23:22:05.541Z,102010.16
2018-12-26T23:24:34.603Z,102029.94
2018-12-26T23:27:03.656Z,102022.90
2018-12-26T23:29:32.792Z,102023.97
2018-12-26T23:32:01.840Z,102024.35
2018-12-26T23:34:30.921Z,102033.59
2018-12-26T23:36:59.986Z,102030.71
2018-12-26T23:39:29.088Z,102027.61
2018-12-26T23:41:58.147Z,102023.02
2018-12-26T23:44:27.284Z,102029.09
2018-12-26T23:46:56.325Z,102023.26
2018-12-26T23:49:25.421Z,102018.00
2018-12-26T23:51:54.503Z,102015.60
2018-12-26T23:54:23.587Z,102005.55
2018-12-26T23:56:52.623Z,102002.66
2018-12-26T23:59:21.715Z,102000.64
